sensor_id;sensor_type;location;lat;lon;timestamp;temperature;humidity
9209;DHT22;4639;48.862;9.188;2023-02-15T00:01:26;2.40;99.90
9209;DHT22;4639;48.862;9.188;2023-02-15T00:03:51;2.30;99.90
9209;DHT22;4639;48.862;9.188;2023-02-15T00:06:17;2.20;99.90
9209;DHT22;4639;48.862;9.188;2023-02-15T00:08:44;2.30;99.90
9209;DHT22;4639;48.862;9.188;2023-02-15T00:11:15;2.20;99.90
9209;DHT22;4639;48.862;9.188;2023-02-15T00:13:41;2.30;99.90
9209;DHT22;4639;48.862;9.188;2023-02-15T00:16:11;2.30;99.90
9209;DHT22;4639;48.862;9.188;2023-02-15T00:18:40;2.30;99.90
9209;DHT22;4639;48.862;9.188;2023-02-15T00:21:08;2.20;99.90
9209;DHT22;4639;48.862;9.188;2023-02-15T00:23:34;2.30;99.90
9209;DHT22;4639;48.862;9.188;2023-02-15T00:26:08;2.20;99.90
9209;DHT22;4639;48.862;9.188;2023-02-15T00:28:34;2.20;99.90
9209;DHT22;4639;48.862;9.188;2023-02-15T00:31:07;2.20;99.90
9209;DHT22;4639;48.862;9.188;2023-02-15T00:33:33;2.30;99.90
9209;DHT22;4639;48.862;9.188;2023-02-15T00:36:00;2.30;99.90
9209;DHT22;4639;48.862;9.188;2023-02-15T00:38:27;2.20;99.90
9209;DHT22;4639;48.862;9.188;2023-02-15T00:40:58;2.20;99.90
9209;DHT22;4639;48.862;9.188;2023-02-15T00:43:24;2.20;99.90
9209;DHT22;4639;48.862;9.188;2023-02-15T00:45:50;2.20;99.90
9209;DHT22;4639;48.862;9.188;2023-02-15T00:48:16;2.20;99.90
9209;DHT22;4639;48.862;9.188;2023-02-15T00:50:55;2.10;99.90
9209;DHT22;4639;48.862;9.188;2023-02-15T00:53:21;2.10;99.90
9209;DHT22;4639;48.862;9.188;2023-02-15T00:55:47;2.00;99.90
9209;DHT22;4639;48.862;9.188;2023-02-15T00:58:14;2.00;99.90
9209;DHT22;4639;48.862;9.188;2023-02-15T01:00:42;2.00;99.90
9209;DHT22;4639;48.862;9.188;2023-02-15T01:03:08;2.00;99.90
9209;DHT22;4639;48.862;9.188;2023-02-15T01:05:34;2.00;99.90
9209;DHT22;4639;48.862;9.188;2023-02-15T01:08:00;2.00;99.90
9209;DHT22;4639;48.862;9.188;2023-02-15T01:10:26;2.00;99.90
9209;DHT22;4639;48.862;9.188;2023-02-15T01:12:53;2.00;99.90
9209;DHT22;4639;48.862;9.188;2023-02-15T01:15:19;2.00;99.90
9209;DHT22;4639;48.862;9.188;2023-02-15T01:17:45;2.00;99.90
9209;DHT22;4639;48.862;9.188;2023-02-15T01:20:17;2.00;99.90
9209;DHT22;4639;48.862;9.188;2023-02-15T01:22:43;2.00;99.90
9209;DHT22;4639;48.862;9.188;2023-02-15T01:25:09;2.00;99.90
9209;DHT22;4639;48.862;9.188;2023-02-15T01:27:34;2.00;99.90
9209;DHT22;4639;48.862;9.188;2023-02-15T01:30:00;1.90;99.90
9209;DHT22;4639;48.862;9.188;2023-02-15T01:32:26;2.00;99.90
9209;DHT22;4639;48.862;9.188;2023-02-15T01:34:52;1.90;99.90
9209;DHT22;4639;48.862;9.188;2023-02-15T01:37:18;1.90;99.90
9209;DHT22;4639;48.862;9.188;2023-02-15T01:39:43;1.80;99.90
9209;DHT22;4639;48.862;9.188;2023-02-15T01:42:12;1.80;99.90
9209;DHT22;4639;48.862;9.188;2023-02-15T01:47:19;1.80;99.90
9209;DHT22;4639;48.862;9.188;2023-02-15T01:49:46;1.80;99.90
9209;DHT22;4639;48.862;9.188;2023-02-15T01:52:14;1.80;99.90
9209;DHT22;4639;48.862;9.188;2023-02-15T01:54:44;1.80;99.90
9209;DHT22;4639;48.862;9.188;2023-02-15T01:57:13;1.80;99.90
9209;DHT22;4639;48.862;9.188;2023-02-15T01:59:43;1.80;99.90
9209;DHT22;4639;48.862;9.188;2023-02-15T02:02:12;1.70;99.90
9209;DHT22;4639;48.862;9.188;2023-02-15T02:04:49;1.70;99.90
9209;DHT22;4639;48.862;9.188;2023-02-15T02:07:18;1.60;99.90
9209;DHT22;4639;48.862;9.188;2023-02-15T02:09:45;1.70;99.90
9209;DHT22;4639;48.862;9.188;2023-02-15T02:12:11;1.60;99.90
9209;DHT22;4639;48.862;9.188;2023-02-15T02:14:37;1.60;99.90
9209;DHT22;4639;48.862;9.188;2023-02-15T02:22:39;1.70;99.90
9209;DHT22;4639;48.862;9.188;2023-02-15T02:27:57;1.40;99.90
9209;DHT22;4639;48.862;9.188;2023-02-15T02:30:55;1.20;99.90
9209;DHT22;4639;48.862;9.188;2023-02-15T02:38:58;1.20;99.90
9209;DHT22;4639;48.862;9.188;2023-02-15T02:41:42;1.30;99.90
9209;DHT22;4639;48.862;9.188;2023-02-15T02:49:40;0.90;99.90
9209;DHT22;4639;48.862;9.188;2023-02-15T02:52:37;0.80;99.90
9209;DHT22;4639;48.862;9.188;2023-02-15T02:55:06;0.60;99.90
9209;DHT22;4639;48.862;9.188;2023-02-15T02:57:37;0.50;99.90
9209;DHT22;4639;48.862;9.188;2023-02-15T03:00:04;0.40;99.90
9209;DHT22;4639;48.862;9.188;2023-02-15T03:02:35;0.20;99.90
9209;DHT22;4639;48.862;9.188;2023-02-15T03:05:06;0.20;99.90
9209;DHT22;4639;48.862;9.188;2023-02-15T03:07:35;0.10;99.90
9209;DHT22;4639;48.862;9.188;2023-02-15T03:10:04;0.00;99.90
9209;DHT22;4639;48.862;9.188;2023-02-15T03:12:36;-0.10;99.90
9209;DHT22;4639;48.862;9.188;2023-02-15T03:15:29;-0.20;99.90
9209;DHT22;4639;48.862;9.188;2023-02-15T03:18:18;-0.10;99.90
9209;DHT22;4639;48.862;9.188;2023-02-15T03:20:45;0.00;99.90
9209;DHT22;4639;48.862;9.188;2023-02-15T03:23:19;0.20;99.90
9209;DHT22;4639;48.862;9.188;2023-02-15T03:26:01;0.20;99.90
9209;DHT22;4639;48.862;9.188;2023-02-15T03:28:38;0.10;99.90
9209;DHT22;4639;48.862;9.188;2023-02-15T03:31:08;0.00;99.90
9209;DHT22;4639;48.862;9.188;2023-02-15T03:33:37;0.10;99.90
9209;DHT22;4639;48.862;9.188;2023-02-15T03:39:26;0.30;99.90
9209;DHT22;4639;48.862;9.188;2023-02-15T03:42:01;0.00;99.90
9209;DHT22;4639;48.862;9.188;2023-02-15T03:44:32;0.00;99.90
9209;DHT22;4639;48.862;9.188;2023-02-15T03:47:08;-0.10;99.90
9209;DHT22;4639;48.862;9.188;2023-02-15T03:52:11;0.00;99.90
9209;DHT22;4639;48.862;9.188;2023-02-15T03:54:39;-0.10;99.90
9209;DHT22;4639;48.862;9.188;2023-02-15T03:59:58;-0.10;99.90
9209;DHT22;4639;48.862;9.188;2023-02-15T04:03:06;-0.10;99.90
9209;DHT22;4639;48.862;9.188;2023-02-15T04:05:33;-0.10;99.90
9209;DHT22;4639;48.862;9.188;2023-02-15T04:07:58;-0.10;99.90
9209;DHT22;4639;48.862;9.188;2023-02-15T04:10:24;0.00;99.90
9209;DHT22;4639;48.862;9.188;2023-02-15T04:13:08;0.00;99.90
9209;DHT22;4639;48.862;9.188;2023-02-15T04:15:33;0.00;99.90
9209;DHT22;4639;48.862;9.188;2023-02-15T04:18:17;0.00;99.90
9209;DHT22;4639;48.862;9.188;2023-02-15T04:20:44;-0.10;99.90
9209;DHT22;4639;48.862;9.188;2023-02-15T04:23:28;-0.30;99.90
9209;DHT22;4639;48.862;9.188;2023-02-15T04:26:13;-0.20;99.90
9209;DHT22;4639;48.862;9.188;2023-02-15T04:28:38;-0.10;99.90
9209;DHT22;4639;48.862;9.188;2023-02-15T04:31:04;-0.20;99.90
9209;DHT22;4639;48.862;9.188;2023-02-15T04:33:29;-0.10;99.90
9209;DHT22;4639;48.862;9.188;2023-02-15T04:35:55;0.10;99.90
9209;DHT22;4639;48.862;9.188;2023-02-15T04:38:21;0.10;99.90
9209;DHT22;4639;48.862;9.188;2023-02-15T04:40:51;0.10;99.90
9209;DHT22;4639;48.862;9.188;2023-02-15T04:43:18;0.20;99.90
9209;DHT22;4639;48.862;9.188;2023-02-15T04:45:51;0.30;99.90
9209;DHT22;4639;48.862;9.188;2023-02-15T04:48:17;0.30;99.90
9209;DHT22;4639;48.862;9.188;2023-02-15T04:50:43;0.40;99.90
9209;DHT22;4639;48.862;9.188;2023-02-15T04:53:09;0.40;99.90
9209;DHT22;4639;48.862;9.188;2023-02-15T04:55:35;0.30;99.90
9209;DHT22;4639;48.862;9.188;2023-02-15T04:58:00;0.30;99.90
9209;DHT22;4639;48.862;9.188;2023-02-15T05:00:26;0.20;99.90
9209;DHT22;4639;48.862;9.188;2023-02-15T05:02:52;0.10;99.90
9209;DHT22;4639;48.862;9.188;2023-02-15T05:05:18;0.20;99.90
9209;DHT22;4639;48.862;9.188;2023-02-15T05:07:44;0.30;99.90
9209;DHT22;4639;48.862;9.188;2023-02-15T05:10:09;0.20;99.90
9209;DHT22;4639;48.862;9.188;2023-02-15T05:12:35;0.00;99.90
9209;DHT22;4639;48.862;9.188;2023-02-15T05:15:00;-0.10;99.90
9209;DHT22;4639;48.862;9.188;2023-02-15T05:17:26;0.00;99.90
9209;DHT22;4639;48.862;9.188;2023-02-15T05:19:51;0.10;99.90
9209;DHT22;4639;48.862;9.188;2023-02-15T05:22:17;0.20;99.90
9209;DHT22;4639;48.862;9.188;2023-02-15T05:24:42;0.20;99.90
9209;DHT22;4639;48.862;9.188;2023-02-15T05:27:26;0.20;99.90
9209;DHT22;4639;48.862;9.188;2023-02-15T05:30:11;0.30;99.90
9209;DHT22;4639;48.862;9.188;2023-02-15T05:32:38;0.30;99.90
9209;DHT22;4639;48.862;9.188;2023-02-15T05:35:05;0.30;99.90
9209;DHT22;4639;48.862;9.188;2023-02-15T05:37:31;0.30;99.90
9209;DHT22;4639;48.862;9.188;2023-02-15T05:39:57;0.40;99.90
9209;DHT22;4639;48.862;9.188;2023-02-15T05:42:22;0.40;99.90
9209;DHT22;4639;48.862;9.188;2023-02-15T05:44:48;0.30;99.90
9209;DHT22;4639;48.862;9.188;2023-02-15T05:47:13;0.30;99.90
9209;DHT22;4639;48.862;9.188;2023-02-15T05:49:39;0.30;99.90
9209;DHT22;4639;48.862;9.188;2023-02-15T05:52:04;0.40;99.90
9209;DHT22;4639;48.862;9.188;2023-02-15T05:54:30;0.40;99.90
9209;DHT22;4639;48.862;9.188;2023-02-15T05:56:55;0.30;99.90
9209;DHT22;4639;48.862;9.188;2023-02-15T05:59:21;0.20;99.90
9209;DHT22;4639;48.862;9.188;2023-02-15T06:01:47;0.10;99.90
9209;DHT22;4639;48.862;9.188;2023-02-15T06:04:12;-0.10;99.90
9209;DHT22;4639;48.862;9.188;2023-02-15T06:06:38;0.10;99.90
9209;DHT22;4639;48.862;9.188;2023-02-15T06:09:03;0.20;99.90
9209;DHT22;4639;48.862;9.188;2023-02-15T06:11:29;0.20;99.90
9209;DHT22;4639;48.862;9.188;2023-02-15T06:13:55;0.20;99.90
9209;DHT22;4639;48.862;9.188;2023-02-15T06:16:21;0.20;99.90
9209;DHT22;4639;48.862;9.188;2023-02-15T06:18:46;0.20;99.90
9209;DHT22;4639;48.862;9.188;2023-02-15T06:21:12;0.00;99.90
9209;DHT22;4639;48.862;9.188;2023-02-15T06:23:38;0.00;99.90
9209;DHT22;4639;48.862;9.188;2023-02-15T06:26:03;0.10;99.90
9209;DHT22;4639;48.862;9.188;2023-02-15T06:28:32;0.00;99.90
9209;DHT22;4639;48.862;9.188;2023-02-15T06:30:58;0.10;99.90
9209;DHT22;4639;48.862;9.188;2023-02-15T06:33:23;0.10;99.90
9209;DHT22;4639;48.862;9.188;2023-02-15T06:35:49;0.10;99.90
9209;DHT22;4639;48.862;9.188;2023-02-15T06:38:14;0.10;99.90
9209;DHT22;4639;48.862;9.188;2023-02-15T06:40:40;0.10;99.90
9209;DHT22;4639;48.862;9.188;2023-02-15T06:43:05;0.10;99.90
9209;DHT22;4639;48.862;9.188;2023-02-15T06:45:31;0.20;99.90
9209;DHT22;4639;48.862;9.188;2023-02-15T06:47:57;0.20;99.90
9209;DHT22;4639;48.862;9.188;2023-02-15T06:50:22;0.20;99.90
9209;DHT22;4639;48.862;9.188;2023-02-15T06:52:48;0.20;99.90
9209;DHT22;4639;48.862;9.188;2023-02-15T06:55:13;0.20;99.90
9209;DHT22;4639;48.862;9.188;2023-02-15T06:57:39;0.20;99.90
9209;DHT22;4639;48.862;9.188;2023-02-15T07:00:06;0.20;99.90
9209;DHT22;4639;48.862;9.188;2023-02-15T07:02:32;0.10;99.90
9209;DHT22;4639;48.862;9.188;2023-02-15T07:04:57;0.20;99.90
9209;DHT22;4639;48.862;9.188;2023-02-15T07:07:23;0.10;99.90
9209;DHT22;4639;48.862;9.188;2023-02-15T07:09:48;0.10;99.90
9209;DHT22;4639;48.862;9.188;2023-02-15T07:12:14;0.10;99.90
9209;DHT22;4639;48.862;9.188;2023-02-15T07:14:59;0.20;99.90
9209;DHT22;4639;48.862;9.188;2023-02-15T07:17:25;0.20;99.90
9209;DHT22;4639;48.862;9.188;2023-02-15T07:19:54;0.20;99.90
9209;DHT22;4639;48.862;9.188;2023-02-15T07:22:19;0.10;99.90
9209;DHT22;4639;48.862;9.188;2023-02-15T07:24:45;0.10;99.90
9209;DHT22;4639;48.862;9.188;2023-02-15T07:27:10;0.10;99.90
9209;DHT22;4639;48.862;9.188;2023-02-15T07:29:36;0.20;99.90
9209;DHT22;4639;48.862;9.188;2023-02-15T07:32:01;0.20;99.90
9209;DHT22;4639;48.862;9.188;2023-02-15T07:34:27;0.20;99.90
9209;DHT22;4639;48.862;9.188;2023-02-15T07:36:53;0.20;99.90
9209;DHT22;4639;48.862;9.188;2023-02-15T07:39:19;0.30;99.90
9209;DHT22;4639;48.862;9.188;2023-02-15T07:41:44;0.40;99.90
9209;DHT22;4639;48.862;9.188;2023-02-15T07:44:14;0.40;99.90
9209;DHT22;4639;48.862;9.188;2023-02-15T07:46:40;0.40;99.90
9209;DHT22;4639;48.862;9.188;2023-02-15T07:49:06;0.50;99.90
9209;DHT22;4639;48.862;9.188;2023-02-15T07:51:32;0.50;99.90
9209;DHT22;4639;48.862;9.188;2023-02-15T07:53:57;0.60;99.90
9209;DHT22;4639;48.862;9.188;2023-02-15T07:56:23;0.60;99.90
9209;DHT22;4639;48.862;9.188;2023-02-15T07:58:48;0.60;99.90
9209;DHT22;4639;48.862;9.188;2023-02-15T08:01:32;0.60;99.90
9209;DHT22;4639;48.862;9.188;2023-02-15T08:03:58;0.60;99.90
9209;DHT22;4639;48.862;9.188;2023-02-15T08:06:26;0.50;99.90
9209;DHT22;4639;48.862;9.188;2023-02-15T08:08:52;0.60;99.90
9209;DHT22;4639;48.862;9.188;2023-02-15T08:11:22;0.70;99.90
9209;DHT22;4639;48.862;9.188;2023-02-15T08:19:24;0.80;99.90
9209;DHT22;4639;48.862;9.188;2023-02-15T08:21:55;0.90;99.90
9209;DHT22;4639;48.862;9.188;2023-02-15T08:24:26;0.80;99.90
9209;DHT22;4639;48.862;9.188;2023-02-15T08:26:53;0.60;99.90
9209;DHT22;4639;48.862;9.188;2023-02-15T08:29:23;0.60;99.90
9209;DHT22;4639;48.862;9.188;2023-02-15T08:31:52;0.60;99.90
9209;DHT22;4639;48.862;9.188;2023-02-15T08:34:19;0.60;99.90
9209;DHT22;4639;48.862;9.188;2023-02-15T08:36:45;0.70;99.90
9209;DHT22;4639;48.862;9.188;2023-02-15T08:39:13;0.80;99.90
9209;DHT22;4639;48.862;9.188;2023-02-15T08:41:42;0.90;99.90
9209;DHT22;4639;48.862;9.188;2023-02-15T08:44:08;0.90;99.90
9209;DHT22;4639;48.862;9.188;2023-02-15T08:46:36;0.90;99.90
9209;DHT22;4639;48.862;9.188;2023-02-15T08:49:02;0.80;99.90
9209;DHT22;4639;48.862;9.188;2023-02-15T08:51:31;0.90;99.90
9209;DHT22;4639;48.862;9.188;2023-02-15T08:54:00;1.00;99.90
9209;DHT22;4639;48.862;9.188;2023-02-15T08:56:28;1.10;99.90
9209;DHT22;4639;48.862;9.188;2023-02-15T08:58:54;1.10;99.90
9209;DHT22;4639;48.862;9.188;2023-02-15T09:01:22;1.20;99.90
9209;DHT22;4639;48.862;9.188;2023-02-15T09:03:51;1.30;99.90
9209;DHT22;4639;48.862;9.188;2023-02-15T09:06:20;1.40;99.90
9209;DHT22;4639;48.862;9.188;2023-02-15T09:08:46;1.50;99.90
9209;DHT22;4639;48.862;9.188;2023-02-15T09:11:27;1.50;99.90
9209;DHT22;4639;48.862;9.188;2023-02-15T09:13:57;1.60;99.90
9209;DHT22;4639;48.862;9.188;2023-02-15T09:16:27;1.60;99.90
9209;DHT22;4639;48.862;9.188;2023-02-15T09:18:53;1.80;99.90
9209;DHT22;4639;48.862;9.188;2023-02-15T09:21:21;1.80;99.90
9209;DHT22;4639;48.862;9.188;2023-02-15T09:23:49;1.90;99.90
9209;DHT22;4639;48.862;9.188;2023-02-15T09:26:20;2.10;99.90
9209;DHT22;4639;48.862;9.188;2023-02-15T09:28:47;2.20;99.90
9209;DHT22;4639;48.862;9.188;2023-02-15T09:31:19;2.30;99.90
9209;DHT22;4639;48.862;9.188;2023-02-15T09:33:46;2.40;99.90
9209;DHT22;4639;48.862;9.188;2023-02-15T09:36:36;2.20;99.90
9209;DHT22;4639;48.862;9.188;2023-02-15T09:42:05;1.80;99.90
9209;DHT22;4639;48.862;9.188;2023-02-15T09:47:49;1.90;99.90
9209;DHT22;4639;48.862;9.188;2023-02-15T09:50:42;2.10;99.90
9209;DHT22;4639;48.862;9.188;2023-02-15T09:59:00;2.50;99.90
9209;DHT22;4639;48.862;9.188;2023-02-15T10:02:02;2.60;99.90
9209;DHT22;4639;48.862;9.188;2023-02-15T10:07:45;3.20;99.90
9209;DHT22;4639;48.862;9.188;2023-02-15T10:21:07;5.20;99.90
9209;DHT22;4639;48.862;9.188;2023-02-15T10:28:51;7.00;99.90
9209;DHT22;4639;48.862;9.188;2023-02-15T10:34:23;7.90;99.90
9209;DHT22;4639;48.862;9.188;2023-02-15T10:37:24;8.60;99.90
9209;DHT22;4639;48.862;9.188;2023-02-15T10:56:10;10.60;99.90
9209;DHT22;4639;48.862;9.188;2023-02-15T11:01:34;10.50;99.90
9209;DHT22;4639;48.862;9.188;2023-02-15T11:06:28;10.60;99.90
9209;DHT22;4639;48.862;9.188;2023-02-15T11:08:57;10.80;99.90
9209;DHT22;4639;48.862;9.188;2023-02-15T11:11:32;11.10;99.90
9209;DHT22;4639;48.862;9.188;2023-02-15T11:14:02;11.50;99.90
9209;DHT22;4639;48.862;9.188;2023-02-15T11:16:36;11.70;99.90
9209;DHT22;4639;48.862;9.188;2023-02-15T11:19:11;11.80;99.90
9209;DHT22;4639;48.862;9.188;2023-02-15T11:21:49;11.60;99.90
9209;DHT22;4639;48.862;9.188;2023-02-15T11:24:18;11.60;99.90
9209;DHT22;4639;48.862;9.188;2023-02-15T11:29:33;11.90;99.90
9209;DHT22;4639;48.862;9.188;2023-02-15T11:32:03;12.10;99.90
9209;DHT22;4639;48.862;9.188;2023-02-15T11:34:44;12.30;99.90
9209;DHT22;4639;48.862;9.188;2023-02-15T11:37:16;12.20;99.90
9209;DHT22;4639;48.862;9.188;2023-02-15T11:39:43;12.30;99.90
9209;DHT22;4639;48.862;9.188;2023-02-15T11:42:19;12.30;99.90
9209;DHT22;4639;48.862;9.188;2023-02-15T11:47:19;12.60;99.90
9209;DHT22;4639;48.862;9.188;2023-02-15T11:49:45;12.50;99.90
9209;DHT22;4639;48.862;9.188;2023-02-15T11:52:13;12.20;99.90
9209;DHT22;4639;48.862;9.188;2023-02-15T11:54:43;11.80;99.90
9209;DHT22;4639;48.862;9.188;2023-02-15T11:59:46;11.20;99.90
9209;DHT22;4639;48.862;9.188;2023-02-15T12:02:20;10.80;99.90
9209;DHT22;4639;48.862;9.188;2023-02-15T12:04:56;10.60;99.90
9209;DHT22;4639;48.862;9.188;2023-02-15T12:12:43;10.70;99.90
9209;DHT22;4639;48.862;9.188;2023-02-15T12:15:12;10.70;99.90
9209;DHT22;4639;48.862;9.188;2023-02-15T12:17:40;10.40;99.90
9209;DHT22;4639;48.862;9.188;2023-02-15T12:20:30;10.30;99.90
9209;DHT22;4639;48.862;9.188;2023-02-15T12:23:06;10.10;99.90
9209;DHT22;4639;48.862;9.188;2023-02-15T12:25:51;10.10;99.90
9209;DHT22;4639;48.862;9.188;2023-02-15T12:30:56;10.60;99.90
9209;DHT22;4639;48.862;9.188;2023-02-15T12:33:39;10.60;99.90
9209;DHT22;4639;48.862;9.188;2023-02-15T12:36:12;10.60;99.90
9209;DHT22;4639;48.862;9.188;2023-02-15T12:38:40;10.70;99.90
9209;DHT22;4639;48.862;9.188;2023-02-15T12:41:25;10.70;99.90
9209;DHT22;4639;48.862;9.188;2023-02-15T12:44:09;10.90;99.90
9209;DHT22;4639;48.862;9.188;2023-02-15T12:46:40;10.90;99.90
9209;DHT22;4639;48.862;9.188;2023-02-15T12:49:19;11.00;99.90
9209;DHT22;4639;48.862;9.188;2023-02-15T12:51:55;11.40;99.90
9209;DHT22;4639;48.862;9.188;2023-02-15T12:56:50;12.00;99.90
9209;DHT22;4639;48.862;9.188;2023-02-15T12:59:17;12.30;99.90
9209;DHT22;4639;48.862;9.188;2023-02-15T13:01:58;12.40;99.90
9209;DHT22;4639;48.862;9.188;2023-02-15T13:04:25;12.60;99.90
9209;DHT22;4639;48.862;9.188;2023-02-15T13:06:58;12.90;99.90
9209;DHT22;4639;48.862;9.188;2023-02-15T13:11:57;12.40;99.90
9209;DHT22;4639;48.862;9.188;2023-02-15T13:14:35;12.50;99.90
9209;DHT22;4639;48.862;9.188;2023-02-15T13:17:03;12.80;99.90
9209;DHT22;4639;48.862;9.188;2023-02-15T13:19:34;13.00;99.90
9209;DHT22;4639;48.862;9.188;2023-02-15T13:22:05;13.20;99.90
9209;DHT22;4639;48.862;9.188;2023-02-15T13:24:39;13.30;99.90
9209;DHT22;4639;48.862;9.188;2023-02-15T13:27:04;13.30;99.90
9209;DHT22;4639;48.862;9.188;2023-02-15T13:29:34;13.40;99.90
9209;DHT22;4639;48.862;9.188;2023-02-15T13:32:24;13.20;99.90
9209;DHT22;4639;48.862;9.188;2023-02-15T13:34:58;13.30;99.90
9209;DHT22;4639;48.862;9.188;2023-02-15T13:37:52;13.40;99.90
9209;DHT22;4639;48.862;9.188;2023-02-15T13:40:25;13.40;99.90
9209;DHT22;4639;48.862;9.188;2023-02-15T13:43:05;13.40;99.90
9209;DHT22;4639;48.862;9.188;2023-02-15T13:45:58;13.40;99.90
9209;DHT22;4639;48.862;9.188;2023-02-15T13:59:24;13.90;99.90
9209;DHT22;4639;48.862;9.188;2023-02-15T14:05:05;13.80;99.90
9209;DHT22;4639;48.862;9.188;2023-02-15T14:10:57;14.10;99.90
9209;DHT22;4639;48.862;9.188;2023-02-15T14:16:39;13.40;99.90
9209;DHT22;4639;48.862;9.188;2023-02-15T14:19:13;13.40;99.90
9209;DHT22;4639;48.862;9.188;2023-02-15T14:22:11;13.40;99.90
9209;DHT22;4639;48.862;9.188;2023-02-15T14:24:45;13.80;99.90
9209;DHT22;4639;48.862;9.188;2023-02-15T14:30:19;14.70;99.90
9209;DHT22;4639;48.862;9.188;2023-02-15T14:32:49;14.90;99.90
9209;DHT22;4639;48.862;9.188;2023-02-15T14:35:21;15.00;99.90
9209;DHT22;4639;48.862;9.188;2023-02-15T14:40:49;15.10;99.90
9209;DHT22;4639;48.862;9.188;2023-02-15T14:49:23;15.60;99.90
9209;DHT22;4639;48.862;9.188;2023-02-15T14:56:41;15.80;99.90
9209;DHT22;4639;48.862;9.188;2023-02-15T15:01:39;16.20;99.90
9209;DHT22;4639;48.862;9.188;2023-02-15T15:04:12;16.20;99.90
9209;DHT22;4639;48.862;9.188;2023-02-15T15:06:42;16.20;99.90
9209;DHT22;4639;48.862;9.188;2023-02-15T15:09:42;16.10;99.90
9209;DHT22;4639;48.862;9.188;2023-02-15T15:12:37;16.10;99.90
9209;DHT22;4639;48.862;9.188;2023-02-15T15:15:04;16.20;99.90
9209;DHT22;4639;48.862;9.188;2023-02-15T15:20:00;16.10;99.90
9209;DHT22;4639;48.862;9.188;2023-02-15T15:22:27;16.10;99.90
9209;DHT22;4639;48.862;9.188;2023-02-15T15:24:58;16.20;99.90
9209;DHT22;4639;48.862;9.188;2023-02-15T15:27:50;16.20;99.90
9209;DHT22;4639;48.862;9.188;2023-02-15T15:38:56;16.10;99.90
9209;DHT22;4639;48.862;9.188;2023-02-15T15:44:57;15.80;99.90
9209;DHT22;4639;48.862;9.188;2023-02-15T15:50:32;15.10;99.90
9209;DHT22;4639;48.862;9.188;2023-02-15T15:52:59;14.80;99.90
9209;DHT22;4639;48.862;9.188;2023-02-15T15:55:29;14.50;99.90
9209;DHT22;4639;48.862;9.188;2023-02-15T15:58:02;14.20;99.90
9209;DHT22;4639;48.862;9.188;2023-02-15T16:00:50;14.00;99.90
9209;DHT22;4639;48.862;9.188;2023-02-15T16:03:25;13.70;99.90
9209;DHT22;4639;48.862;9.188;2023-02-15T16:05:52;13.40;99.90
9209;DHT22;4639;48.862;9.188;2023-02-15T16:08:36;13.20;99.90
9209;DHT22;4639;48.862;9.188;2023-02-15T16:11:24;12.90;99.90
9209;DHT22;4639;48.862;9.188;2023-02-15T16:13:51;12.60;99.90
9209;DHT22;4639;48.862;9.188;2023-02-15T16:16:22;12.40;99.90
9209;DHT22;4639;48.862;9.188;2023-02-15T16:18:49;12.20;99.90
9209;DHT22;4639;48.862;9.188;2023-02-15T16:21:26;11.90;99.90
9209;DHT22;4639;48.862;9.188;2023-02-15T16:27:07;11.50;99.90
9209;DHT22;4639;48.862;9.188;2023-02-15T16:29:36;11.20;99.90
9209;DHT22;4639;48.862;9.188;2023-02-15T16:32:15;10.60;99.90
9209;DHT22;4639;48.862;9.188;2023-02-15T16:35:01;10.10;99.90
9209;DHT22;4639;48.862;9.188;2023-02-15T16:37:32;9.50;99.90
9209;DHT22;4639;48.862;9.188;2023-02-15T16:39:58;9.40;99.90
9209;DHT22;4639;48.862;9.188;2023-02-15T16:42:24;9.20;99.90
9209;DHT22;4639;48.862;9.188;2023-02-15T16:47:35;9.20;99.90
9209;DHT22;4639;48.862;9.188;2023-02-15T16:50:02;9.20;99.90
9209;DHT22;4639;48.862;9.188;2023-02-15T16:52:29;9.20;99.90
9209;DHT22;4639;48.862;9.188;2023-02-15T16:55:00;9.20;99.90
9209;DHT22;4639;48.862;9.188;2023-02-15T16:57:30;9.20;99.90
9209;DHT22;4639;48.862;9.188;2023-02-15T17:00:02;9.30;99.90
9209;DHT22;4639;48.862;9.188;2023-02-15T17:02:30;9.00;99.90
9209;DHT22;4639;48.862;9.188;2023-02-15T17:07:41;9.00;99.90
9209;DHT22;4639;48.862;9.188;2023-02-15T17:13:15;8.80;99.90
9209;DHT22;4639;48.862;9.188;2023-02-15T17:15:41;8.90;99.90
9209;DHT22;4639;48.862;9.188;2023-02-15T17:21:30;8.90;99.90
9209;DHT22;4639;48.862;9.188;2023-02-15T17:23:59;9.00;99.90
9209;DHT22;4639;48.862;9.188;2023-02-15T17:26:36;8.80;99.90
9209;DHT22;4639;48.862;9.188;2023-02-15T17:29:17;8.70;99.90
9209;DHT22;4639;48.862;9.188;2023-02-15T17:31:50;8.60;99.90
9209;DHT22;4639;48.862;9.188;2023-02-15T17:39:53;8.00;99.90
9209;DHT22;4639;48.862;9.188;2023-02-15T17:42:19;8.10;99.90
9209;DHT22;4639;48.862;9.188;2023-02-15T17:44:44;8.00;99.90
9209;DHT22;4639;48.862;9.188;2023-02-15T17:47:22;7.90;99.90
9209;DHT22;4639;48.862;9.188;2023-02-15T17:49:48;7.90;99.90
9209;DHT22;4639;48.862;9.188;2023-02-15T17:52:16;7.90;99.90
9209;DHT22;4639;48.862;9.188;2023-02-15T17:54:43;7.80;99.90
9209;DHT22;4639;48.862;9.188;2023-02-15T17:57:28;7.90;99.90
9209;DHT22;4639;48.862;9.188;2023-02-15T17:59:54;7.90;99.90
9209;DHT22;4639;48.862;9.188;2023-02-15T18:02:38;7.90;99.90
9209;DHT22;4639;48.862;9.188;2023-02-15T18:05:22;7.90;99.90
9209;DHT22;4639;48.862;9.188;2023-02-15T18:08:15;7.80;99.90
9209;DHT22;4639;48.862;9.188;2023-02-15T18:11:00;7.80;99.90
9209;DHT22;4639;48.862;9.188;2023-02-15T18:13:45;7.70;99.90
9209;DHT22;4639;48.862;9.188;2023-02-15T18:16:19;7.60;99.90
9209;DHT22;4639;48.862;9.188;2023-02-15T18:18:46;7.80;99.90
9209;DHT22;4639;48.862;9.188;2023-02-15T18:21:11;7.50;99.90
9209;DHT22;4639;48.862;9.188;2023-02-15T18:23:41;7.50;99.90
9209;DHT22;4639;48.862;9.188;2023-02-15T18:26:11;7.50;99.90
9209;DHT22;4639;48.862;9.188;2023-02-15T18:28:41;7.50;99.90
9209;DHT22;4639;48.862;9.188;2023-02-15T18:31:07;7.40;99.90
9209;DHT22;4639;48.862;9.188;2023-02-15T18:33:36;7.40;99.90
9209;DHT22;4639;48.862;9.188;2023-02-15T18:36:05;7.30;99.90
9209;DHT22;4639;48.862;9.188;2023-02-15T18:38:31;7.30;99.90
9209;DHT22;4639;48.862;9.188;2023-02-15T18:40:57;7.10;99.90
9209;DHT22;4639;48.862;9.188;2023-02-15T18:43:22;7.10;99.90
9209;DHT22;4639;48.862;9.188;2023-02-15T18:45:48;7.30;99.90
9209;DHT22;4639;48.862;9.188;2023-02-15T18:48:14;7.00;99.90
9209;DHT22;4639;48.862;9.188;2023-02-15T18:50:40;7.00;99.90
9209;DHT22;4639;48.862;9.188;2023-02-15T18:53:10;7.00;99.90
9209;DHT22;4639;48.862;9.188;2023-02-15T18:55:38;6.90;99.90
9209;DHT22;4639;48.862;9.188;2023-02-15T18:58:03;6.90;99.90
9209;DHT22;4639;48.862;9.188;2023-02-15T19:00:32;6.80;99.90
9209;DHT22;4639;48.862;9.188;2023-02-15T19:02:59;6.80;99.90
9209;DHT22;4639;48.862;9.188;2023-02-15T19:05:26;6.70;99.90
9209;DHT22;4639;48.862;9.188;2023-02-15T19:07:52;6.70;99.90
9209;DHT22;4639;48.862;9.188;2023-02-15T19:10:26;6.70;99.90
9209;DHT22;4639;48.862;9.188;2023-02-15T19:12:53;6.70;99.90
9209;DHT22;4639;48.862;9.188;2023-02-15T19:15:25;6.60;99.90
9209;DHT22;4639;48.862;9.188;2023-02-15T19:17:52;6.50;99.90
9209;DHT22;4639;48.862;9.188;2023-02-15T19:20:20;6.50;99.90
9209;DHT22;4639;48.862;9.188;2023-02-15T19:22:49;6.50;99.90
9209;DHT22;4639;48.862;9.188;2023-02-15T19:25:29;6.40;99.90
9209;DHT22;4639;48.862;9.188;2023-02-15T19:27:55;6.40;99.90
9209;DHT22;4639;48.862;9.188;2023-02-15T19:30:24;6.40;99.90
9209;DHT22;4639;48.862;9.188;2023-02-15T19:32:52;6.40;99.90
9209;DHT22;4639;48.862;9.188;2023-02-15T19:35:22;6.40;99.90
9209;DHT22;4639;48.862;9.188;2023-02-15T19:38:02;6.30;99.90
9209;DHT22;4639;48.862;9.188;2023-02-15T19:40:32;6.20;99.90
9209;DHT22;4639;48.862;9.188;2023-02-15T19:42:58;6.20;99.90
9209;DHT22;4639;48.862;9.188;2023-02-15T19:45:27;6.20;99.90